Animas, NM

6:22 AM MDT on July 24, 2014 (GMT -0600)
Rodeo, NM (KNMRODEO2) Elev 4236 ft | 31.80 °N, 109.02 °W | Change Station

Current weather conditions updated 0 second ago

Clear
Clear
75.7 °F
Feels Like 77 °F
N
4.0
Wind Variable Wind from SSE
Gusts 5.0 mph

Today is forecast to be nearly the same temperature as yesterday.

Today
High -- | Low -- °F
--% Chance of Precip.
Yesterday
High -- | Low -- °F
Precip. -- in
6:25 AM 8:17 PM
Waning Crescent, 5% visible
Pressure 29.89 in
Visibility 10.0 miles
Clouds Clear
Heat Index 77 °F
Dew Point 46 °F
Humidity 35%
Rainfall 0.00 in
Snow Depth Not available.
UV 0 out of 12
Pollen 4.40 out of 12
Air Quality Not available.
Flu Activity Not available.
METAR KDUG 241156Z AUTO 00000KT 10SM CLR 23/10 A3013 RMK AO2 SLP120 T02280100 10272 20194 53000

More Conditions Fewer Conditions

Pressure 29.89 in
Visibility 10.0 miles
Clouds Clear
Heat Index 77 °F
Dew Point 46 °F
Humidity 35%
Rainfall 0.00 in
Snow Depth Not available.
UV 0 out of 12
Pollen 4.40 out of 12
Air Quality Not available.
Flu Activity Not available.
METAR KDUG 241156Z AUTO 00000KT 10SM CLR 23/10 A3013 RMK AO2 SLP120 T02280100 10272 20194 53000

More Conditions Fewer Conditions

10-Day Weather Forecast

Almanac

Astronomy

Jul. 24, 2014 Rise Set
Actual Time 6:25 AM MDT 8:17 PM MDT
Civil Twilight 5:58 AM MDT 8:44 PM MDT
Nautical Twilight 5:25 AM MDT 9:17 PM MDT
Astronomical Twilight 4:50 AM MDT 9:52 PM MDT
Moon 4:34 AM MDT 6:36 PM MDT
Length of Visible Light 14h 46m
Length of Day
13h 52m
Tomorrow will be 1m 17s shorter.
Waning Crescent, 5% of the Moon is Illuminated
Today
Waning Crescent
Jul 26
New
Aug 3
First Quarter
Aug 10
Full
Aug 17
Last Quarter

Today's Extremes

State Highs State Lows

Community

WunderPhotos

Upload Photos

1,736,988 photos uploaded!

Nearby

Snow Depth

Station Depth Elevation
McKnight Cabin 0 in 9240 ft
Silver Creek Divide 3 in 9000 ft
Sierra Blanca 2 in 10280 ft
Rice Park 0 in 8460 ft
Santa Fe 1 in 11445 ft

Earthquake Activity

City Distance Mag. Time & Date
No recent earthquake activity has been reported nearby.
Minimum magnitude displayed is 2.5.

Coastal Water Temperatures

Place Temperature
No Stations Reporting

Nearby Weather Stations

Station Location Temp. Heat Index Dew Point Humidity Wind Precip. Elev Updated Type
Rodeo Airport, Rodeo, NM 64.6 °F - - - North  at  2.2 mph 0.00 in / hr 4157 ft 6:22 AM MDT Rapid Fire
Rodeo, NM, Rodeo, NM 75.7 °F 77 °F 46 °F 35% SSE  at  4.0 mph 0.00 in / hr 4236 ft 6:22 AM MDT Rapid Fire

Show More Stations Show Fewer Stations